createdAt,value
2023-04-05T00:01:53.725Z,5.07
2023-04-05T00:04:23.797Z,5.04
2023-04-05T00:06:53.979Z,5.01
2023-04-05T00:09:21.020Z,5.00
2023-04-05T00:11:48.361Z,4.98
2023-04-05T00:14:14.915Z,4.96
2023-04-05T00:16:41.900Z,4.93
2023-04-05T00:19:08.854Z,4.89
2023-04-05T00:21:35.194Z,4.84
2023-04-05T00:24:01.608Z,4.80
2023-04-05T00:26:28.050Z,4.75
2023-04-05T00:28:54.427Z,4.72
2023-04-05T00:31:20.874Z,4.68
2023-04-05T00:33:47.403Z,4.63
2023-04-05T00:36:20.508Z,4.58
2023-04-05T00:38:48.064Z,4.54
2023-04-05T00:41:14.641Z,4.51
2023-04-05T00:43:41.695Z,4.49
2023-04-05T00:46:08.785Z,4.45
2023-04-05T00:48:35.936Z,4.42
2023-04-05T00:51:02.677Z,4.38
2023-04-05T00:53:29.960Z,4.35
2023-04-05T00:55:57.293Z,4.30
2023-04-05T00:58:23.869Z,4.28
2023-04-05T01:01:06.536Z,4.25
2023-04-05T01:03:35.352Z,4.22
2023-04-05T01:06:21.492Z,4.18
2023-04-05T01:08:52.344Z,4.18
2023-04-05T01:11:19.028Z,4.15
2023-04-05T01:13:46.705Z,4.10
2023-04-05T01:16:13.341Z,4.04
2023-04-05T01:18:40.708Z,4.01
2023-04-05T01:21:34.452Z,3.94
2023-04-05T01:24:14.997Z,3.91
2023-04-05T01:27:04.215Z,3.88
2023-04-05T01:29:43.314Z,3.85
2023-04-05T01:32:24.613Z,3.82
2023-04-05T01:35:29.376Z,3.78
2023-04-05T01:38:01.598Z,3.75
2023-04-05T01:40:29.581Z,3.72
2023-04-05T01:42:55.934Z,3.70
2023-04-05T01:45:22.282Z,3.70
2023-04-05T01:47:48.796Z,3.69
2023-04-05T01:50:15.602Z,3.69
2023-04-05T01:52:42.016Z,3.70
2023-04-05T01:55:08.638Z,3.72
2023-04-05T01:57:35.117Z,3.72
2023-04-05T02:00:01.819Z,3.74
2023-04-05T02:02:28.201Z,3.77
2023-04-05T02:04:54.693Z,3.77
2023-04-05T02:07:21.122Z,3.78
2023-04-05T02:09:47.485Z,3.80
2023-04-05T02:12:13.996Z,3.80
2023-04-05T02:14:40.866Z,3.80
2023-04-05T02:17:07.489Z,3.81
2023-04-05T02:19:40.676Z,3.81
2023-04-05T02:22:08.360Z,3.82
2023-04-05T02:24:35.121Z,3.82
2023-04-05T02:27:01.581Z,3.82
2023-04-05T02:29:28.383Z,3.82
2023-04-05T02:31:55.038Z,3.82
2023-04-05T02:34:22.834Z,3.81
2023-04-05T02:36:51.172Z,3.79
2023-04-05T02:39:18.285Z,3.77
2023-04-05T02:41:44.809Z,3.74
2023-04-05T02:44:11.290Z,3.72
2023-04-05T02:46:37.729Z,3.70
2023-04-05T02:49:04.254Z,3.67
2023-04-05T02:51:30.587Z,3.63
2023-04-05T02:53:57.057Z,3.60
2023-04-05T02:56:23.403Z,3.55
2023-04-05T02:58:49.840Z,3.51
2023-04-05T03:01:17.776Z,3.48
2023-04-05T03:03:44.295Z,3.43
2023-04-05T03:06:10.815Z,3.39
2023-04-05T03:08:38.988Z,3.37
2023-04-05T03:11:06.558Z,3.32
2023-04-05T03:13:33.110Z,3.28
2023-04-05T03:15:59.469Z,3.26
2023-04-05T03:18:26.686Z,3.23
2023-04-05T03:20:59.837Z,3.23
2023-04-05T03:23:28.604Z,3.22
2023-04-05T03:25:58.757Z,3.22
2023-04-05T03:28:25.701Z,3.22
2023-04-05T03:30:52.121Z,3.23
2023-04-05T03:33:19.653Z,3.24
2023-04-05T03:35:46.638Z,3.25
2023-04-05T03:38:13.094Z,3.26
2023-04-05T03:40:40.162Z,3.29
2023-04-05T03:43:06.568Z,3.28
2023-04-05T03:45:33.855Z,3.30
2023-04-05T03:48:00.995Z,3.32
2023-04-05T03:50:27.534Z,3.33
2023-04-05T03:52:53.916Z,3.35
2023-04-05T03:55:20.261Z,3.35
2023-04-05T03:57:47.512Z,3.33
2023-04-05T04:00:14.680Z,3.33
2023-04-05T04:02:45.928Z,3.33
2023-04-05T04:05:13.936Z,3.31
2023-04-05T04:07:41.677Z,3.28
2023-04-05T04:10:10.364Z,3.25
2023-04-05T04:12:37.285Z,3.22
2023-04-05T04:15:04.515Z,3.18
2023-04-05T04:17:33.372Z,3.13
2023-04-05T04:20:00.391Z,3.07
2023-04-05T04:22:33.170Z,3.02
2023-04-05T04:25:04.664Z,2.98
2023-04-05T04:27:31.876Z,2.93
2023-04-05T04:30:04.705Z,2.90
2023-04-05T04:32:49.528Z,2.87
2023-04-05T04:35:18.372Z,2.85
2023-04-05T04:37:52.881Z,2.82
2023-04-05T04:40:19.272Z,2.81
2023-04-05T04:42:48.297Z,2.79
2023-04-05T04:45:17.194Z,2.78
2023-04-05T04:47:44.909Z,2.77
2023-04-05T04:50:11.877Z,2.74
2023-04-05T04:52:40.155Z,2.72
2023-04-05T04:55:08.524Z,2.70
2023-04-05T04:57:35.390Z,2.65
2023-04-05T05:00:02.182Z,2.61
2023-04-05T05:02:31.016Z,2.58
2023-04-05T05:04:57.727Z,2.55
2023-04-05T05:07:24.100Z,2.52
2023-04-05T05:09:52.407Z,2.51
2023-04-05T05:12:19.345Z,2.50
2023-04-05T05:14:45.716Z,2.48
2023-04-05T05:17:12.310Z,2.49
2023-04-05T05:19:38.824Z,2.49
2023-04-05T05:22:05.254Z,2.52
2023-04-05T05:24:31.731Z,2.55
2023-04-05T05:26:58.158Z,2.58
2023-04-05T05:29:24.505Z,2.62
2023-04-05T05:31:51.016Z,2.68
2023-04-05T05:34:36.200Z,2.72
2023-04-05T05:37:02.800Z,2.78
2023-04-05T05:39:29.150Z,2.82
2023-04-05T05:41:55.479Z,2.84
2023-04-05T05:44:21.856Z,2.87
2023-04-05T05:46:48.471Z,2.92
2023-04-05T05:49:14.988Z,2.97
2023-04-05T05:51:41.493Z,3.01
2023-04-05T05:54:07.876Z,3.05
2023-04-05T05:56:34.265Z,3.13
2023-04-05T05:59:01.563Z,3.17
2023-04-05T06:01:28.432Z,3.22
2023-04-05T06:03:55.596Z,3.27
2023-04-05T06:06:22.786Z,3.34
2023-04-05T06:08:51.280Z,3.39
2023-04-05T06:11:19.158Z,3.44
2023-04-05T06:13:45.632Z,3.50
2023-04-05T06:16:12.195Z,3.56
2023-04-05T06:18:38.711Z,3.61
2023-04-05T06:21:05.035Z,3.66
2023-04-05T06:23:31.538Z,3.71
2023-04-05T06:25:57.953Z,3.77
2023-04-05T06:28:24.273Z,3.82
2023-04-05T06:30:50.823Z,3.90
2023-04-05T06:33:17.189Z,3.96
2023-04-05T06:35:43.536Z,4.03
2023-04-05T06:38:09.909Z,4.08
2023-04-05T06:40:36.251Z,4.16
2023-04-05T06:43:02.711Z,4.24
2023-04-05T06:45:29.031Z,4.32
2023-04-05T06:47:55.693Z,4.42
2023-04-05T06:50:22.183Z,4.53
2023-04-05T06:52:48.514Z,4.64
2023-04-05T06:55:14.909Z,4.73
2023-04-05T06:57:41.550Z,4.82
2023-04-05T07:00:12.554Z,4.92
2023-04-05T07:02:41.728Z,5.02
2023-04-05T07:05:08.825Z,5.09
2023-04-05T07:07:45.410Z,5.19
2023-04-05T07:10:11.810Z,5.30
2023-04-05T07:12:39.763Z,5.41
2023-04-05T07:15:06.933Z,5.52
2023-04-05T07:17:33.276Z,5.62
2023-04-05T07:19:59.718Z,5.76
2023-04-05T07:22:26.145Z,5.85
2023-04-05T07:24:53.051Z,5.97
2023-04-05T07:27:19.483Z,6.07
2023-04-05T07:29:48.271Z,6.18
2023-04-05T07:32:14.968Z,6.29
2023-04-05T07:34:41.607Z,6.40
2023-04-05T07:37:08.553Z,6.50
2023-04-05T07:39:34.984Z,6.64
2023-04-05T07:42:01.613Z,6.75
2023-04-05T07:44:28.019Z,6.85
2023-04-05T07:46:54.418Z,6.97
2023-04-05T07:49:25.401Z,7.08
2023-04-05T07:51:54.823Z,7.16
2023-04-05T07:54:21.200Z,7.23
2023-04-05T07:56:49.380Z,7.31
2023-04-05T07:59:16.716Z,7.36
2023-04-05T08:01:43.337Z,7.40
2023-04-05T08:04:09.693Z,7.44
2023-04-05T08:06:36.612Z,7.50
2023-04-05T08:09:05.571Z,7.53
2023-04-05T08:11:32.334Z,7.57
2023-04-05T08:13:58.767Z,7.63
2023-04-05T08:16:25.479Z,7.70
2023-04-05T08:18:51.833Z,7.78
2023-04-05T08:21:18.156Z,7.85
2023-04-05T08:23:44.501Z,7.93
2023-04-05T08:26:10.940Z,7.99
2023-04-05T08:28:37.550Z,8.06
2023-04-05T08:31:03.943Z,8.12
2023-04-05T08:33:31.213Z,8.17
2023-04-05T08:35:57.927Z,8.24
2023-04-05T08:38:24.275Z,8.30
2023-04-05T08:40:50.715Z,8.38
2023-04-05T08:43:25.883Z,8.43
2023-04-05T08:45:53.340Z,8.47
2023-04-05T08:48:20.642Z,8.52
2023-04-05T08:50:53.871Z,8.57
2023-04-05T08:53:20.647Z,8.60
2023-04-05T08:55:50.984Z,8.68
2023-04-05T08:58:18.516Z,8.75
2023-04-05T09:00:45.170Z,8.82
2023-04-05T09:03:16.745Z,8.90
2023-04-05T09:05:46.433Z,8.99
2023-04-05T09:08:13.679Z,9.07
2023-04-05T09:10:40.934Z,9.15
2023-04-05T09:13:11.255Z,9.25
2023-04-05T09:15:38.629Z,9.36
2023-04-05T09:18:12.382Z,9.44
2023-04-05T09:20:45.845Z,9.53
2023-04-05T09:23:12.360Z,9.57
2023-04-05T09:25:40.315Z,9.60
2023-04-05T09:28:07.383Z,9.62
2023-04-05T09:30:35.632Z,9.65
2023-04-05T09:33:02.224Z,9.68
2023-04-05T09:35:33.387Z,9.72
2023-04-05T09:38:07.751Z,9.75
2023-04-05T09:40:48.409Z,9.78
2023-04-05T09:43:41.479Z,9.81
2023-04-05T09:46:28.467Z,9.85
2023-04-05T09:48:55.029Z,9.90
2023-04-05T09:51:21.661Z,9.95
2023-04-05T09:54:00.599Z,10.03
2023-04-05T09:56:27.865Z,10.11
2023-04-05T09:59:07.650Z,10.22
2023-04-05T10:01:34.202Z,10.32
2023-04-05T10:04:01.015Z,10.42
2023-04-05T10:06:40.292Z,10.52
2023-04-05T10:09:08.400Z,10.62
2023-04-05T10:11:36.993Z,10.75
2023-04-05T10:14:05.559Z,10.88
2023-04-05T10:16:54.912Z,11.05
2023-04-05T10:19:29.152Z,11.17
2023-04-05T10:22:01.719Z,11.29
2023-04-05T10:24:38.098Z,11.39
2023-04-05T10:27:07.698Z,11.47
2023-04-05T10:30:04.856Z,11.57
2023-04-05T10:33:00.424Z,11.65
2023-04-05T12:09:13.255Z,13.14
2023-04-05T12:11:41.089Z,13.46
2023-04-05T12:14:07.411Z,13.71
2023-04-05T12:16:33.955Z,13.91
2023-04-05T12:19:00.876Z,14.07
2023-04-05T12:21:27.923Z,14.18
2023-04-05T12:23:54.810Z,14.24
2023-04-05T12:26:22.211Z,14.29
2023-04-05T12:28:56.121Z,14.34
2023-04-05T12:31:37.216Z,14.39
2023-04-05T12:34:03.624Z,14.44
2023-04-05T12:36:32.083Z,14.52
2023-04-05T12:38:59.012Z,14.59
2023-04-05T12:41:29.904Z,14.68
2023-04-05T12:44:04.552Z,14.75
2023-04-05T12:46:40.959Z,14.85
2023-04-05T12:49:10.921Z,14.94
2023-04-05T12:51:41.514Z,15.00
2023-04-05T12:54:07.835Z,15.09
2023-04-05T12:56:34.231Z,15.18
2023-04-05T12:59:00.753Z,15.29
2023-04-05T13:01:27.229Z,15.42
2023-04-05T13:03:56.890Z,15.54
2023-04-05T13:06:33.900Z,15.67
2023-04-05T13:09:00.593Z,15.78
2023-04-05T13:11:28.102Z,15.89
2023-04-05T13:13:54.726Z,16.00
2023-04-05T13:16:21.682Z,16.08
2023-04-05T13:18:48.052Z,16.11
2023-04-05T13:21:14.477Z,16.10
2023-04-05T13:23:41.635Z,16.08
2023-04-05T13:26:08.271Z,16.02
2023-04-05T13:28:35.319Z,15.95
2023-04-05T13:31:03.251Z,15.86
2023-04-05T13:33:29.584Z,15.71
2023-04-05T13:35:55.994Z,15.61
2023-04-05T13:38:22.458Z,15.50
2023-04-05T13:40:48.783Z,15.40
2023-04-05T13:43:15.323Z,15.29
2023-04-05T13:45:41.890Z,15.18
2023-04-05T13:48:08.471Z,15.07
2023-04-05T13:50:35.004Z,14.95
2023-04-05T13:53:01.698Z,14.85
2023-04-05T13:55:28.041Z,14.77
2023-04-05T13:57:54.374Z,14.69
2023-04-05T14:00:21.138Z,14.64
2023-04-05T14:02:48.796Z,14.63
2023-04-05T14:05:17.042Z,14.65
2023-04-05T14:07:43.437Z,14.68
2023-04-05T14:10:11.563Z,14.71
2023-04-05T14:12:38.763Z,14.73
2023-04-05T14:15:05.793Z,14.73
2023-04-05T14:17:32.173Z,14.72
2023-04-05T14:19:58.558Z,14.73
2023-04-05T14:22:25.287Z,14.72
2023-04-05T14:24:51.598Z,14.73
2023-04-05T14:27:18.081Z,14.74
2023-04-05T14:29:45.613Z,14.73
2023-04-05T14:32:12.113Z,14.71
2023-04-05T14:34:38.549Z,14.66
2023-04-05T14:37:06.482Z,14.65
2023-04-05T14:39:32.894Z,14.61
2023-04-05T14:41:59.837Z,14.60
2023-04-05T14:44:27.760Z,14.60
2023-04-05T14:46:54.244Z,14.60
2023-04-05T14:49:21.437Z,14.61
2023-04-05T14:51:48.000Z,14.63
2023-04-05T14:54:14.442Z,14.66
2023-04-05T14:56:40.834Z,14.67
2023-04-05T14:59:07.310Z,14.66
2023-04-05T15:01:33.765Z,14.65
2023-04-05T15:04:01.027Z,14.62
2023-04-05T15:06:27.395Z,14.59
2023-04-05T15:08:53.737Z,14.58
2023-04-05T15:11:21.566Z,14.59
2023-04-05T15:13:47.932Z,14.61
2023-04-05T15:16:14.414Z,14.63
2023-04-05T15:18:40.937Z,14.68
2023-04-05T15:21:07.512Z,14.70
2023-04-05T15:23:34.205Z,14.72
2023-04-05T15:26:00.801Z,14.75
2023-04-05T15:28:27.171Z,14.78
2023-04-05T15:30:53.575Z,14.79
2023-04-05T15:33:20.037Z,14.82
2023-04-05T15:35:46.542Z,14.85
2023-04-05T15:38:13.037Z,14.86
2023-04-05T15:40:40.175Z,14.87
2023-04-05T15:43:06.628Z,14.85
2023-04-05T15:45:32.958Z,14.83
2023-04-05T15:47:59.712Z,14.76
2023-04-05T15:50:26.215Z,14.69
2023-04-05T15:52:52.606Z,14.62
2023-04-05T15:55:19.349Z,14.55
2023-04-05T15:57:45.948Z,14.50
2023-04-05T16:00:13.019Z,14.45
2023-04-05T16:02:39.686Z,14.41
2023-04-05T16:05:06.435Z,14.37
2023-04-05T16:07:32.907Z,14.30
2023-04-05T16:09:59.255Z,14.23
2023-04-05T16:12:25.885Z,14.19
2023-04-05T16:14:52.335Z,14.18
2023-04-05T16:17:18.730Z,14.20
2023-04-05T16:19:45.183Z,14.26
2023-04-05T16:22:11.596Z,14.35
2023-04-05T16:24:39.105Z,14.48
2023-04-05T16:27:06.135Z,14.62
2023-04-05T16:29:33.054Z,14.78
2023-04-05T16:31:59.561Z,14.89
2023-04-05T16:34:26.375Z,15.01
2023-04-05T16:36:52.827Z,15.11
2023-04-05T16:39:19.323Z,15.21
2023-04-05T16:41:45.927Z,15.33
2023-04-05T16:44:12.466Z,15.44
2023-04-05T16:46:39.968Z,15.57
2023-04-05T16:49:06.507Z,15.70
2023-04-05T16:51:34.294Z,15.83
2023-04-05T16:54:00.771Z,15.94
2023-04-05T16:56:27.324Z,16.04
2023-04-05T16:58:53.780Z,16.16
2023-04-05T17:01:20.410Z,16.23
2023-04-05T17:03:46.996Z,16.33
2023-04-05T17:06:16.509Z,16.40
2023-04-05T17:08:42.996Z,16.44
2023-04-05T17:11:09.387Z,16.46
2023-04-05T17:13:35.783Z,16.42
2023-04-05T17:16:02.262Z,16.37
2023-04-05T17:18:28.729Z,16.31
2023-04-05T17:20:55.241Z,16.25
2023-04-05T17:23:21.695Z,16.17
2023-04-05T17:25:48.054Z,16.06
2023-04-05T17:28:14.401Z,15.89
2023-04-05T17:30:41.108Z,15.69
2023-04-05T17:33:07.801Z,15.50
2023-04-05T17:35:34.305Z,15.32
2023-04-05T17:38:03.206Z,15.17
2023-04-05T17:40:31.044Z,15.03
2023-04-05T17:42:57.417Z,14.91
2023-04-05T17:45:23.790Z,14.79
2023-04-05T17:47:50.290Z,14.67
2023-04-05T17:50:16.719Z,14.56
2023-04-05T17:52:43.327Z,14.42
2023-04-05T17:55:10.307Z,14.30
2023-04-05T17:57:36.842Z,14.16
2023-04-05T18:00:04.034Z,14.00
2023-04-05T18:02:30.571Z,13.88
2023-04-05T18:04:57.162Z,13.72
2023-04-05T18:07:23.516Z,13.60
2023-04-05T18:09:49.961Z,13.46
2023-04-05T18:12:16.292Z,13.34
2023-04-05T18:14:42.654Z,13.22
2023-04-05T18:17:09.045Z,13.09
2023-04-05T18:19:35.759Z,12.98
2023-04-05T18:22:02.286Z,12.87
2023-04-05T18:24:29.336Z,12.75
2023-04-05T18:26:55.787Z,12.63
2023-04-05T18:29:27.957Z,12.52
2023-04-05T18:31:55.749Z,12.42
2023-04-05T18:34:22.244Z,12.31
2023-04-05T18:36:48.628Z,12.21
2023-04-05T18:39:15.343Z,12.10
2023-04-05T18:41:41.674Z,11.99
2023-04-05T18:44:09.067Z,11.89
2023-04-05T18:46:35.490Z,11.79
2023-04-05T18:49:01.856Z,11.68
2023-04-05T18:51:28.489Z,11.58
2023-04-05T18:53:54.849Z,11.48
2023-04-05T18:56:21.263Z,11.39
2023-04-05T18:58:47.808Z,11.30
2023-04-05T19:01:15.959Z,11.21
2023-04-05T19:03:42.844Z,11.11
2023-04-05T19:06:09.734Z,11.03
2023-04-05T19:08:36.107Z,10.93
2023-04-05T19:11:02.529Z,10.85
2023-04-05T19:13:28.867Z,10.76
2023-04-05T19:15:55.692Z,10.67
2023-04-05T19:18:25.712Z,10.60
2023-04-05T19:20:57.634Z,10.51
2023-04-05T19:23:26.228Z,10.42
2023-04-05T19:25:54.661Z,10.36
2023-04-05T19:28:21.261Z,10.28
2023-04-05T19:30:47.640Z,10.19
2023-04-05T19:33:14.253Z,10.13
2023-04-05T19:35:41.113Z,10.06
2023-04-05T19:38:07.736Z,10.00
2023-04-05T19:40:34.113Z,9.94
2023-04-05T19:43:02.002Z,9.87
2023-04-05T19:45:30.752Z,9.83
2023-04-05T19:47:59.698Z,9.78
2023-04-05T19:50:38.697Z,9.72
2023-04-05T19:53:07.411Z,9.66
2023-04-05T19:55:38.528Z,9.63
2023-04-05T19:58:09.533Z,9.60
2023-04-05T20:00:43.342Z,9.56
2023-04-05T20:03:32.042Z,9.53
2023-04-05T20:06:04.269Z,9.49
2023-04-05T20:08:33.540Z,9.44
2023-04-05T20:11:00.128Z,9.40
2023-04-05T20:13:26.581Z,9.36
2023-04-05T20:15:53.989Z,9.32
2023-04-05T20:18:26.826Z,9.29
2023-04-05T20:20:54.272Z,9.25
2023-04-05T20:23:22.514Z,9.22
2023-04-05T20:25:50.537Z,9.19
2023-04-05T20:28:32.268Z,9.16
2023-04-05T20:30:58.736Z,9.13
2023-04-05T20:33:52.416Z,9.09
2023-04-05T20:36:21.427Z,9.05
2023-04-05T20:38:48.854Z,9.01
2023-04-05T20:41:17.305Z,8.98
2023-04-05T20:43:43.998Z,8.94
2023-04-05T20:46:11.717Z,8.91
2023-04-05T20:48:39.007Z,8.90
2023-04-05T20:51:07.655Z,8.85
2023-04-05T20:53:34.439Z,8.81
2023-04-05T20:56:00.858Z,8.78
2023-04-05T20:58:27.803Z,8.74
2023-04-05T21:00:54.838Z,8.71
2023-04-05T21:03:21.939Z,8.69
2023-04-05T21:05:48.429Z,8.64
2023-04-05T21:08:15.889Z,8.61
2023-04-05T21:10:42.553Z,8.59
2023-04-05T21:13:08.872Z,8.56
2023-04-05T21:15:35.479Z,8.52
2023-04-05T21:18:02.850Z,8.48
2023-04-05T21:20:29.200Z,8.46
2023-04-05T21:22:58.908Z,8.42
2023-04-05T21:25:25.790Z,8.38
2023-04-05T21:27:52.132Z,8.34
2023-04-05T21:30:18.629Z,8.30
2023-04-05T21:32:45.163Z,8.27
2023-04-05T21:35:11.753Z,8.24
2023-04-05T21:37:38.128Z,8.21
2023-04-05T21:40:05.161Z,8.18
2023-04-05T21:42:31.970Z,8.14
2023-04-05T21:44:58.546Z,8.12
2023-04-05T21:47:25.325Z,8.09
2023-04-05T21:49:52.749Z,8.05
2023-04-05T21:52:19.344Z,8.02
2023-04-05T21:54:46.139Z,7.98
2023-04-05T21:57:12.503Z,7.95
2023-04-05T21:59:38.942Z,7.91
2023-04-05T22:02:06.805Z,7.87
2023-04-05T22:04:33.476Z,7.84
2023-04-05T22:06:59.850Z,7.81
2023-04-05T22:09:27.892Z,7.78
2023-04-05T22:11:54.581Z,7.75
2023-04-05T22:14:20.978Z,7.74
2023-04-05T22:16:47.972Z,7.70
2023-04-05T22:19:14.540Z,7.67
2023-04-05T22:21:41.292Z,7.64
2023-04-05T22:24:09.150Z,7.62
2023-04-05T22:26:35.660Z,7.60
2023-04-05T22:29:02.858Z,7.57
2023-04-05T22:31:29.260Z,7.56
2023-04-05T22:33:55.613Z,7.53
2023-04-05T22:36:22.191Z,7.50
2023-04-05T22:38:48.655Z,7.47
2023-04-05T22:41:14.976Z,7.45
2023-04-05T22:43:41.380Z,7.45
2023-04-05T22:46:07.761Z,7.42
2023-04-05T22:48:34.233Z,7.40
2023-04-05T22:51:00.781Z,7.38
2023-04-05T22:53:28.253Z,7.36
2023-04-05T22:55:54.682Z,7.34
2023-04-05T22:58:22.434Z,7.32
2023-04-05T23:00:48.833Z,7.29
2023-04-05T23:03:15.328Z,7.26
2023-04-05T23:05:41.703Z,7.23
2023-04-05T23:08:08.186Z,7.19
2023-04-05T23:10:34.515Z,7.16
2023-04-05T23:13:01.343Z,7.13
2023-04-05T23:15:27.734Z,7.08
2023-04-05T23:17:54.106Z,7.03
2023-04-05T23:20:20.534Z,7.00
2023-04-05T23:22:47.914Z,6.97
2023-04-05T23:25:14.376Z,6.94
2023-04-05T23:27:40.775Z,6.90
2023-04-05T23:30:08.013Z,6.88
2023-04-05T23:32:34.480Z,6.84
2023-04-05T23:35:00.968Z,6.80
2023-04-05T23:37:27.446Z,6.76
2023-04-05T23:39:53.806Z,6.73
2023-04-05T23:42:20.139Z,6.69
2023-04-05T23:44:46.499Z,6.65
2023-04-05T23:47:12.905Z,6.62
2023-04-05T23:49:39.331Z,6.58
2023-04-05T23:52:05.782Z,6.54
2023-04-05T23:54:32.113Z,6.52
2023-04-05T23:56:58.667Z,6.49
2023-04-05T23:59:25.523Z,6.46
